createdAt,value
2022-11-16T00:00:06.285Z,13.70
2022-11-16T00:02:35.227Z,13.70
2022-11-16T00:05:03.447Z,13.60
2022-11-16T00:07:31.666Z,13.50
2022-11-16T00:10:01.267Z,13.50
2022-11-16T00:12:29.555Z,13.50
2022-11-16T00:14:57.843Z,13.50
2022-11-16T00:17:26.062Z,13.60
2022-11-16T00:19:54.233Z,13.60
2022-11-16T00:22:23.453Z,13.60
2022-11-16T00:24:51.737Z,13.50
2022-11-16T00:27:21.258Z,13.50
2022-11-16T00:29:49.471Z,13.50
2022-11-16T00:32:17.663Z,13.50
2022-11-16T00:34:46.074Z,13.40
2022-11-16T00:37:14.302Z,13.40
2022-11-16T00:39:42.526Z,13.30
2022-11-16T00:42:14.052Z,13.30
2022-11-16T00:44:43.615Z,13.30
2022-11-16T00:47:11.816Z,13.30
2022-11-16T00:49:40.007Z,13.30
2022-11-16T00:52:08.408Z,13.40
2022-11-16T00:54:36.793Z,13.50
2022-11-16T00:57:05.398Z,13.50
2022-11-16T00:59:33.643Z,13.50
2022-11-16T01:02:03.283Z,13.40
2022-11-16T01:04:31.523Z,13.40
2022-11-16T01:07:01.090Z,13.40
2022-11-16T01:09:29.409Z,13.30
2022-11-16T01:12:12.720Z,13.30
2022-11-16T01:14:43.807Z,13.40
2022-11-16T01:17:15.146Z,13.30
2022-11-16T01:19:44.045Z,13.30
2022-11-16T01:22:12.314Z,13.30
2022-11-16T01:24:40.742Z,13.20
2022-11-16T01:27:09.002Z,13.20
2022-11-16T01:29:40.330Z,13.20
2022-11-16T01:32:08.870Z,13.20
2022-11-16T01:34:38.782Z,13.20
2022-11-16T01:37:17.498Z,13.20
2022-11-16T01:39:45.894Z,13.20
2022-11-16T01:42:19.455Z,13.20
2022-11-16T01:45:02.339Z,13.20
2022-11-16T01:47:32.060Z,13.10
2022-11-16T01:50:08.805Z,13.10
2022-11-16T01:52:41.304Z,13.00
2022-11-16T01:55:10.879Z,13.00
2022-11-16T01:57:48.913Z,13.00
2022-11-16T02:00:18.686Z,13.00
2022-11-16T02:02:58.439Z,13.10
2022-11-16T02:05:54.930Z,13.10
2022-11-16T02:08:57.003Z,13.10
2022-11-16T02:11:41.463Z,13.00
2022-11-16T02:14:22.418Z,13.00
2022-11-16T02:16:56.838Z,13.00
2022-11-16T02:20:08.350Z,13.00
2022-11-16T02:22:58.456Z,13.00
2022-11-16T02:25:36.065Z,13.00
2022-11-16T02:28:31.274Z,13.00
2022-11-16T02:31:04.934Z,12.90
2022-11-16T02:33:37.218Z,12.90
2022-11-16T02:36:10.454Z,12.80
2022-11-16T02:38:41.495Z,12.80
2022-11-16T02:41:12.179Z,12.80
2022-11-16T02:43:44.530Z,12.70
2022-11-16T02:46:20.468Z,12.70
2022-11-16T02:48:53.181Z,12.70
2022-11-16T02:51:23.808Z,12.70
2022-11-16T02:54:02.212Z,12.60
2022-11-16T02:56:31.942Z,12.60
2022-11-16T02:59:01.132Z,12.50
2022-11-16T03:01:37.601Z,12.50
2022-11-16T03:04:12.613Z,12.50
2022-11-16T03:06:43.763Z,12.50
2022-11-16T03:09:15.295Z,12.50
2022-11-16T03:12:01.134Z,12.50
2022-11-16T03:14:36.776Z,12.50
2022-11-16T03:17:09.293Z,12.50
2022-11-16T03:19:43.050Z,12.60
2022-11-16T03:22:15.637Z,12.60
2022-11-16T03:24:45.085Z,12.50
2022-11-16T03:27:23.957Z,12.50
2022-11-16T03:30:01.154Z,12.50
2022-11-16T03:32:36.836Z,12.50
2022-11-16T03:35:15.813Z,12.50
2022-11-16T03:37:46.621Z,12.50
2022-11-16T03:40:17.980Z,12.50
2022-11-16T03:42:49.523Z,12.50
2022-11-16T03:45:19.797Z,12.50
2022-11-16T03:47:50.456Z,12.50
2022-11-16T03:50:18.659Z,12.50
2022-11-16T03:52:46.812Z,12.50
2022-11-16T03:55:16.156Z,12.60
2022-11-16T03:57:46.104Z,12.60
2022-11-16T04:00:15.576Z,12.60
2022-11-16T04:02:44.727Z,12.60
2022-11-16T04:05:40.667Z,12.40
2022-11-16T04:08:33.133Z,12.30
2022-11-16T04:11:19.499Z,12.00
2022-11-16T04:14:09.277Z,12.00
2022-11-16T04:16:57.446Z,11.80
2022-11-16T04:19:43.391Z,11.60
2022-11-16T04:22:35.578Z,11.40
2022-11-16T04:25:09.804Z,11.30
2022-11-16T04:27:55.520Z,11.10
2022-11-16T04:30:25.267Z,11.10
2022-11-16T04:33:11.494Z,11.00
2022-11-16T04:36:09.078Z,10.90
2022-11-16T04:38:38.721Z,10.70
2022-11-16T04:41:26.908Z,10.50
2022-11-16T04:43:55.210Z,10.50
2022-11-16T04:46:41.026Z,10.30
2022-11-16T04:49:09.480Z,10.30
2022-11-16T04:51:37.631Z,10.20
2022-11-16T04:54:07.297Z,10.10
2022-11-16T04:56:35.651Z,10.10
2022-11-16T04:59:04.075Z,10.00
2022-11-16T05:01:55.247Z,10.00
2022-11-16T05:04:23.813Z,9.90
2022-11-16T05:06:52.493Z,9.80
2022-11-16T05:09:22.666Z,9.80
2022-11-16T05:11:50.951Z,9.80
2022-11-16T05:14:19.603Z,9.70
2022-11-16T05:16:47.818Z,9.60
2022-11-16T05:19:33.454Z,9.60
2022-11-16T05:22:03.018Z,9.50
2022-11-16T05:24:34.584Z,9.40
2022-11-16T05:27:05.402Z,9.30
2022-11-16T05:29:34.731Z,9.30
2022-11-16T05:32:03.955Z,9.30
2022-11-16T05:34:33.473Z,9.20
2022-11-16T05:37:03.180Z,9.10
2022-11-16T05:39:33.550Z,9.00
2022-11-16T05:42:02.586Z,9.00
2022-11-16T05:44:30.895Z,9.00
2022-11-16T05:46:59.355Z,8.90
2022-11-16T05:49:27.823Z,8.90
2022-11-16T05:51:56.627Z,8.80
2022-11-16T05:54:26.703Z,8.80
2022-11-16T05:56:56.630Z,8.70
2022-11-16T05:59:25.567Z,8.80
2022-11-16T06:01:56.773Z,8.80
2022-11-16T06:04:25.942Z,8.70
2022-11-16T06:06:55.728Z,8.60
2022-11-16T06:09:29.998Z,8.60
2022-11-16T06:12:05.996Z,8.70
2022-11-16T06:14:34.242Z,8.50
2022-11-16T06:17:02.490Z,8.50
2022-11-16T06:19:32.584Z,8.50
2022-11-16T06:22:01.181Z,8.50
2022-11-16T06:24:31.120Z,8.50
2022-11-16T06:27:00.211Z,8.40
2022-11-16T06:29:30.047Z,8.40
2022-11-16T06:31:59.022Z,8.40
2022-11-16T06:34:27.287Z,8.40
2022-11-16T06:36:56.326Z,8.40
2022-11-16T06:39:25.103Z,8.40
2022-11-16T06:41:53.778Z,8.40
2022-11-16T06:44:22.065Z,8.40
2022-11-16T06:47:00.331Z,8.50
2022-11-16T06:49:28.855Z,8.60
2022-11-16T06:52:00.991Z,8.60
2022-11-16T06:54:29.294Z,8.50
2022-11-16T06:56:57.554Z,8.60
2022-11-16T06:59:25.767Z,8.50
2022-11-16T07:01:54.142Z,8.50
2022-11-16T07:04:23.798Z,8.50
2022-11-16T07:06:56.480Z,8.50
2022-11-16T07:09:24.887Z,8.70
2022-11-16T07:11:53.160Z,8.80
2022-11-16T07:14:22.763Z,8.90
2022-11-16T07:16:56.300Z,9.00
2022-11-16T07:19:28.825Z,9.00
2022-11-16T07:21:57.812Z,9.00
2022-11-16T07:24:26.363Z,8.90
2022-11-16T07:26:54.617Z,8.90
2022-11-16T07:29:26.587Z,8.80
2022-11-16T07:32:30.755Z,8.80
2022-11-16T07:35:28.364Z,8.70
2022-11-16T07:37:57.262Z,8.80
2022-11-16T07:40:25.575Z,8.80
2022-11-16T07:42:54.175Z,8.70
2022-11-16T07:45:37.639Z,8.70
2022-11-16T07:48:09.171Z,8.70
2022-11-16T07:51:01.535Z,8.70
2022-11-16T07:53:31.962Z,8.70
2022-11-16T07:56:00.245Z,8.70
2022-11-16T07:58:33.849Z,8.70
2022-11-16T08:01:05.770Z,8.80
2022-11-16T08:03:36.713Z,8.80
2022-11-16T08:06:12.189Z,8.90
2022-11-16T08:08:40.899Z,8.90
2022-11-16T08:11:10.728Z,8.90
2022-11-16T08:13:40.801Z,8.90
2022-11-16T08:16:13.675Z,9.00
2022-11-16T08:18:43.559Z,9.00
2022-11-16T08:21:14.875Z,9.00
2022-11-16T08:23:45.919Z,9.10
2022-11-16T08:26:16.922Z,9.20
2022-11-16T08:28:53.700Z,9.30
2022-11-16T08:31:28.517Z,9.30
2022-11-16T08:34:06.361Z,9.40
2022-11-16T08:36:37.983Z,9.50
2022-11-16T08:39:07.582Z,9.40
2022-11-16T08:41:37.680Z,9.50
2022-11-16T08:44:08.290Z,9.60
2022-11-16T08:46:40.103Z,9.70
2022-11-16T08:49:17.837Z,9.70
2022-11-16T08:51:47.483Z,9.70
2022-11-16T08:54:15.961Z,9.80
2022-11-16T08:56:45.289Z,9.90
2022-11-16T08:59:13.698Z,9.90
2022-11-16T09:01:50.053Z,10.10
2022-11-16T09:04:18.894Z,10.10
2022-11-16T09:06:48.586Z,10.10
2022-11-16T09:09:16.854Z,10.20
2022-11-16T09:11:45.195Z,10.30
2022-11-16T09:14:13.467Z,10.40
2022-11-16T09:16:41.676Z,10.40
2022-11-16T09:19:12.638Z,10.40
2022-11-16T09:21:40.883Z,10.50
2022-11-16T09:24:11.101Z,10.70
2022-11-16T09:26:39.416Z,10.90
2022-11-16T09:29:07.743Z,11.20
2022-11-16T09:31:37.424Z,11.50
2022-11-16T09:34:05.684Z,11.60
2022-11-16T09:36:34.551Z,11.60
2022-11-16T09:39:28.816Z,11.70
2022-11-16T09:42:05.823Z,11.90
2022-11-16T09:44:49.591Z,12.00
2022-11-16T09:47:21.708Z,12.20
2022-11-16T09:49:58.147Z,12.20
2022-11-16T09:52:33.403Z,12.20
2022-11-16T09:55:15.951Z,12.20
2022-11-16T09:57:48.477Z,12.30
2022-11-16T10:00:22.751Z,12.40
2022-11-16T10:03:00.763Z,12.60
2022-11-16T10:05:33.852Z,12.70
2022-11-16T10:08:10.898Z,12.80
2022-11-16T10:10:40.932Z,13.00
2022-11-16T10:13:23.506Z,13.10
2022-11-16T10:16:02.943Z,13.10
2022-11-16T10:18:49.110Z,13.10
2022-11-16T10:21:30.027Z,13.30
2022-11-16T10:24:15.807Z,13.40
2022-11-16T10:26:51.477Z,13.50
2022-11-16T10:29:35.056Z,13.70
2022-11-16T10:32:17.763Z,13.90
2022-11-16T10:34:51.999Z,13.90
2022-11-16T10:37:21.277Z,13.80
2022-11-16T10:39:53.111Z,13.90
2022-11-16T10:42:27.840Z,14.00
2022-11-16T10:45:05.167Z,14.30
2022-11-16T10:47:41.772Z,14.30
2022-11-16T10:50:37.425Z,14.30
2022-11-16T10:53:05.848Z,14.30
2022-11-16T10:55:34.112Z,14.40
2022-11-16T10:58:04.118Z,14.50
2022-11-16T11:00:45.002Z,14.40
2022-11-16T11:03:13.274Z,14.50
2022-11-16T11:05:50.784Z,14.40
2022-11-16T11:08:27.513Z,14.20
2022-11-16T11:11:01.931Z,14.10
2022-11-16T11:13:30.256Z,14.10
2022-11-16T11:16:19.008Z,14.20
2022-11-16T11:18:47.315Z,14.10
2022-11-16T11:21:19.910Z,14.30
2022-11-16T11:23:50.799Z,14.20
2022-11-16T11:26:36.219Z,14.20
2022-11-16T11:29:16.847Z,14.30
2022-11-16T11:31:48.464Z,14.40
2022-11-16T11:34:21.547Z,14.40
2022-11-16T11:36:53.355Z,14.60
2022-11-16T11:39:33.745Z,14.80
2022-11-16T11:42:05.185Z,15.10
2022-11-16T11:44:39.599Z,15.20
2022-11-16T11:47:56.061Z,15.20
2022-11-16T11:50:20.900Z,15.30
2022-11-16T11:53:00.495Z,15.50
2022-11-16T11:55:28.992Z,15.60
2022-11-16T11:57:58.643Z,15.60
2022-11-16T12:00:27.236Z,15.40
2022-11-16T12:03:23.724Z,15.20
2022-11-16T12:06:04.507Z,15.10
2022-11-16T12:09:00.030Z,15.10
2022-11-16T12:11:37.058Z,15.30
2022-11-16T12:14:16.762Z,15.20
2022-11-16T12:16:53.071Z,15.10
2022-11-16T12:19:56.246Z,15.00
2022-11-16T12:22:40.986Z,14.70
2022-11-16T12:25:21.903Z,14.60
2022-11-16T12:28:03.978Z,14.40
2022-11-16T12:30:36.532Z,14.30
2022-11-16T12:33:22.131Z,14.40
2022-11-16T12:36:01.990Z,14.30
2022-11-16T12:38:46.456Z,14.30
2022-11-16T12:41:44.370Z,14.20
2022-11-16T12:44:16.284Z,14.10
2022-11-16T12:46:56.786Z,14.00
2022-11-16T12:49:45.472Z,14.10
2022-11-16T12:52:29.887Z,14.10
2022-11-16T12:55:27.935Z,14.00
2022-11-16T12:58:14.435Z,14.10
2022-11-16T13:00:59.544Z,14.10
2022-11-16T13:03:34.941Z,14.30
2022-11-16T13:06:07.033Z,14.40
2022-11-16T13:08:47.967Z,14.70
2022-11-16T13:11:21.614Z,14.90
2022-11-16T13:13:54.217Z,14.90
2022-11-16T13:16:24.771Z,14.80
2022-11-16T13:18:54.869Z,15.00
2022-11-16T13:21:41.569Z,15.20
2022-11-16T13:24:33.002Z,15.30
2022-11-16T13:27:15.610Z,15.40
2022-11-16T13:29:49.493Z,15.60
2022-11-16T13:32:24.033Z,15.70
2022-11-16T13:34:52.819Z,15.70
2022-11-16T13:37:46.623Z,15.70
2022-11-16T13:40:32.802Z,15.40
2022-11-16T13:43:19.792Z,15.20
2022-11-16T13:46:00.184Z,15.00
2022-11-16T13:48:33.736Z,15.00
2022-11-16T13:51:04.292Z,15.00
2022-11-16T13:56:29.345Z,14.90
2022-11-16T13:58:59.111Z,14.90
2022-11-16T14:01:47.470Z,14.70
2022-11-16T14:04:39.939Z,14.90
2022-11-16T14:07:33.858Z,15.10
2022-11-16T14:10:05.585Z,15.10
2022-11-16T14:12:59.286Z,15.00
2022-11-16T14:15:32.797Z,15.00
2022-11-16T14:18:32.780Z,14.90
2022-11-16T14:21:09.822Z,14.70
2022-11-16T14:24:12.111Z,14.60
2022-11-16T14:26:50.437Z,14.40
2022-11-16T14:29:47.075Z,14.20
2022-11-16T14:32:22.513Z,14.20
2022-11-16T14:34:52.887Z,14.20
2022-11-16T14:37:34.535Z,14.10
2022-11-16T14:40:07.535Z,14.10
2022-11-16T14:43:01.857Z,14.00
2022-11-16T14:45:39.422Z,13.90
2022-11-16T14:48:15.537Z,13.70
2022-11-16T14:50:46.116Z,13.70
2022-11-16T14:53:17.981Z,13.40
2022-11-16T14:55:46.594Z,13.30
2022-11-16T14:58:19.765Z,13.20
2022-11-16T15:00:56.292Z,13.10
2022-11-16T15:03:26.597Z,13.10
2022-11-16T15:05:58.362Z,13.10
2022-11-16T15:08:32.089Z,13.10
2022-11-16T15:11:00.878Z,13.00
2022-11-16T15:13:29.164Z,12.90
2022-11-16T15:16:15.757Z,12.90
2022-11-16T15:18:58.226Z,12.90
2022-11-16T15:21:27.486Z,12.70
2022-11-16T15:26:44.667Z,12.60
2022-11-16T15:29:17.736Z,12.60
2022-11-16T15:31:47.955Z,12.50
2022-11-16T15:34:18.511Z,12.40
2022-11-16T15:36:48.590Z,12.30
2022-11-16T15:39:19.966Z,12.30
2022-11-16T15:41:48.683Z,12.20
2022-11-16T15:44:20.190Z,12.20
2022-11-16T15:46:53.135Z,12.10
2022-11-16T15:49:30.011Z,12.10
2022-11-16T15:51:59.310Z,12.00
2022-11-16T15:54:29.241Z,11.90
2022-11-16T15:57:06.766Z,11.90
2022-11-16T15:59:37.070Z,11.80
2022-11-16T16:02:06.615Z,11.70
2022-11-16T16:04:34.918Z,11.60
2022-11-16T16:07:03.534Z,11.60
2022-11-16T16:09:34.115Z,11.60
2022-11-16T16:12:18.649Z,11.50
2022-11-16T16:14:48.436Z,11.40
2022-11-16T16:17:25.566Z,11.30
2022-11-16T16:19:59.121Z,11.30
2022-11-16T16:22:30.447Z,11.20
2022-11-16T16:24:58.990Z,11.00
2022-11-16T16:27:29.686Z,11.00
2022-11-16T16:29:58.939Z,10.90
2022-11-16T16:32:30.040Z,10.90
2022-11-16T16:34:59.503Z,10.80
2022-11-16T16:37:30.095Z,10.80
2022-11-16T16:39:58.419Z,10.70
2022-11-16T16:42:26.882Z,10.70
2022-11-16T16:44:55.066Z,10.60
2022-11-16T16:47:23.204Z,10.60
2022-11-16T16:49:53.696Z,10.60
2022-11-16T16:52:21.891Z,10.50
2022-11-16T16:54:50.094Z,10.50
2022-11-16T16:57:19.537Z,10.40
2022-11-16T16:59:48.440Z,10.40
2022-11-16T17:02:17.650Z,10.30
2022-11-16T17:04:46.797Z,10.30
2022-11-16T17:07:16.995Z,10.30
2022-11-16T17:09:45.239Z,10.20
2022-11-16T17:12:13.491Z,10.20
2022-11-16T17:14:41.972Z,10.30
2022-11-16T17:17:10.190Z,10.30
2022-11-16T17:19:38.423Z,10.30
2022-11-16T17:22:06.680Z,10.30
2022-11-16T17:24:37.066Z,10.30
2022-11-16T17:27:05.597Z,10.30
2022-11-16T17:29:33.824Z,10.30
2022-11-16T17:32:02.313Z,10.30
2022-11-16T17:34:31.369Z,10.30
2022-11-16T17:37:00.115Z,10.20
2022-11-16T17:39:28.302Z,10.30
2022-11-16T17:41:57.803Z,10.30
2022-11-16T17:44:26.625Z,10.30
2022-11-16T17:46:54.797Z,10.30
2022-11-16T17:49:22.940Z,10.30
2022-11-16T17:51:51.138Z,10.30
2022-11-16T17:54:19.333Z,10.30
2022-11-16T17:56:47.753Z,10.30
2022-11-16T17:59:17.267Z,10.40
2022-11-16T18:01:45.518Z,10.30
2022-11-16T18:04:13.763Z,10.40
2022-11-16T18:06:41.877Z,10.40
2022-11-16T18:09:10.034Z,10.40
2022-11-16T18:11:39.707Z,10.40
2022-11-16T18:14:08.086Z,10.40
2022-11-16T18:16:37.699Z,10.40
2022-11-16T18:19:07.625Z,10.40
2022-11-16T18:21:41.006Z,10.50
2022-11-16T18:24:09.571Z,10.50
2022-11-16T18:26:37.906Z,10.60
2022-11-16T18:29:07.014Z,10.60
2022-11-16T18:31:35.224Z,10.60
2022-11-16T18:34:05.292Z,10.60
2022-11-16T18:36:33.725Z,10.60
2022-11-16T18:39:01.925Z,10.70
2022-11-16T18:41:30.855Z,10.70
2022-11-16T18:44:00.088Z,10.70
2022-11-16T18:46:29.901Z,10.70
2022-11-16T18:48:58.651Z,10.70
2022-11-16T18:51:29.344Z,10.80
2022-11-16T18:53:57.749Z,10.80
2022-11-16T18:56:26.899Z,10.90
2022-11-16T18:58:55.227Z,10.90
2022-11-16T19:01:24.940Z,10.90
2022-11-16T19:03:53.790Z,10.90
2022-11-16T19:06:22.395Z,10.90
2022-11-16T19:08:59.409Z,10.90
2022-11-16T19:11:29.184Z,10.90
2022-11-16T19:14:00.459Z,11.00
2022-11-16T19:16:28.960Z,11.00
2022-11-16T19:18:57.268Z,11.00
2022-11-16T19:21:26.231Z,11.00
2022-11-16T19:23:57.489Z,11.00
2022-11-16T19:26:27.642Z,11.00
2022-11-16T19:28:56.247Z,11.10
2022-11-16T19:31:26.371Z,11.10
2022-11-16T19:33:55.979Z,11.10
2022-11-16T19:36:25.300Z,11.10
2022-11-16T19:38:55.279Z,11.10
2022-11-16T19:41:24.077Z,11.20
2022-11-16T19:43:57.080Z,11.20
2022-11-16T19:46:25.904Z,11.10
2022-11-16T19:48:54.558Z,11.20
2022-11-16T19:51:25.664Z,11.20
2022-11-16T19:53:55.411Z,11.20
2022-11-16T19:56:24.720Z,11.20
2022-11-16T19:58:53.596Z,11.10
2022-11-16T20:01:25.305Z,11.20
2022-11-16T20:03:54.026Z,11.20
2022-11-16T20:06:23.763Z,11.20
2022-11-16T20:08:53.840Z,11.20
2022-11-16T20:11:25.112Z,11.20
2022-11-16T20:13:54.902Z,11.20
2022-11-16T20:16:24.882Z,11.20
2022-11-16T20:18:53.663Z,11.20
2022-11-16T20:21:24.091Z,11.20
2022-11-16T20:23:52.757Z,11.30
2022-11-16T20:26:23.501Z,11.30
2022-11-16T20:28:53.125Z,11.20
2022-11-16T20:31:23.253Z,11.20
2022-11-16T20:33:52.664Z,11.20
2022-11-16T20:36:22.729Z,11.20
2022-11-16T20:38:51.536Z,11.20
2022-11-16T20:41:21.464Z,11.10
2022-11-16T20:43:53.467Z,11.20
2022-11-16T20:46:22.992Z,11.10
2022-11-16T20:48:51.588Z,11.10
2022-11-16T20:51:21.495Z,11.20
2022-11-16T20:53:51.923Z,11.20
2022-11-16T20:56:21.376Z,11.20
2022-11-16T20:58:50.874Z,11.20
2022-11-16T21:01:28.110Z,11.20
2022-11-16T21:03:56.789Z,11.20
2022-11-16T21:06:25.099Z,11.20
2022-11-16T21:08:53.253Z,11.20
2022-11-16T21:11:24.869Z,11.20
2022-11-16T21:14:11.055Z,11.20
2022-11-16T21:16:41.022Z,11.20
2022-11-16T21:19:09.235Z,11.20
2022-11-16T21:21:38.020Z,11.20
2022-11-16T21:24:06.677Z,11.30
2022-11-16T21:26:35.384Z,11.20
2022-11-16T21:29:03.687Z,11.20
2022-11-16T21:31:34.234Z,11.20
2022-11-16T21:34:05.763Z,11.20
2022-11-16T21:36:36.023Z,11.20
2022-11-16T21:39:04.267Z,11.20
2022-11-16T21:41:32.653Z,11.20
2022-11-16T21:44:00.805Z,11.10
2022-11-16T21:46:29.240Z,11.20
2022-11-16T21:48:57.448Z,11.20
2022-11-16T21:51:27.878Z,11.20
2022-11-16T21:53:56.585Z,11.20
2022-11-16T21:56:26.044Z,11.20
2022-11-16T21:58:54.954Z,11.20
2022-11-16T22:01:24.400Z,11.20
2022-11-16T22:04:07.649Z,11.20
2022-11-16T22:06:54.727Z,11.20
2022-11-16T22:09:23.102Z,11.20
2022-11-16T22:11:51.375Z,11.20
2022-11-16T22:14:19.638Z,11.20
2022-11-16T22:16:47.761Z,11.20
2022-11-16T22:19:16.005Z,11.20
2022-11-16T22:21:45.508Z,11.30
2022-11-16T22:24:13.667Z,11.20
2022-11-16T22:26:41.967Z,11.20
2022-11-16T22:29:10.151Z,11.20
2022-11-16T22:31:38.323Z,11.20
2022-11-16T22:34:06.739Z,11.20
2022-11-16T22:36:34.882Z,11.20
2022-11-16T22:39:04.594Z,11.30
2022-11-16T22:41:32.795Z,11.20
2022-11-16T22:44:00.937Z,11.30
2022-11-16T22:46:29.166Z,11.30
2022-11-16T22:48:57.278Z,11.30
2022-11-16T22:51:26.889Z,11.40
2022-11-16T22:53:55.960Z,11.40
2022-11-16T22:56:26.701Z,11.40
2022-11-16T22:58:55.046Z,11.30
2022-11-16T23:01:23.627Z,11.40
2022-11-16T23:03:52.189Z,11.40
2022-11-16T23:06:20.456Z,11.30
2022-11-16T23:08:49.055Z,11.30
2022-11-16T23:11:36.385Z,11.40
2022-11-16T23:14:24.911Z,11.40
2022-11-16T23:16:53.665Z,11.40
2022-11-16T23:19:40.219Z,11.40
2022-11-16T23:22:30.836Z,11.40
2022-11-16T23:25:16.240Z,11.40
2022-11-16T23:27:51.462Z,11.50
2022-11-16T23:30:21.450Z,11.40
2022-11-16T23:32:49.780Z,11.40
2022-11-16T23:35:18.403Z,11.40
2022-11-16T23:37:56.981Z,11.40
2022-11-16T23:40:26.986Z,11.40
2022-11-16T23:43:13.174Z,11.40
2022-11-16T23:45:43.931Z,11.50
2022-11-16T23:48:13.936Z,11.50
2022-11-16T23:50:42.351Z,11.50
2022-11-16T23:53:11.538Z,11.50
2022-11-16T23:55:40.590Z,11.40
2022-11-16T23:58:13.510Z,11.40
